createdAt,value
2022-07-31T00:00:24.027Z,99.90
2022-07-31T00:02:51.297Z,99.90
2022-07-31T00:05:18.650Z,99.90
2022-07-31T00:07:45.951Z,99.90
2022-07-31T00:10:13.262Z,99.90
2022-07-31T00:12:40.495Z,99.90
2022-07-31T00:15:10.056Z,99.90
2022-07-31T00:17:40.976Z,99.90
2022-07-31T00:20:09.477Z,99.90
2022-07-31T00:22:36.694Z,99.90
2022-07-31T00:25:04.180Z,99.90
2022-07-31T00:27:31.543Z,99.90
2022-07-31T00:29:58.856Z,99.90
2022-07-31T00:32:26.306Z,99.90
2022-07-31T00:34:53.543Z,99.90
2022-07-31T00:37:20.775Z,99.90
2022-07-31T00:39:49.435Z,99.90
2022-07-31T00:42:18.024Z,99.90
2022-07-31T00:44:47.916Z,99.90
2022-07-31T00:47:16.274Z,99.90
2022-07-31T00:49:44.068Z,99.90
2022-07-31T00:52:11.439Z,99.90
2022-07-31T00:54:39.489Z,99.90
2022-07-31T00:57:07.190Z,99.90
2022-07-31T00:59:34.604Z,99.90
2022-07-31T01:02:02.637Z,99.90
2022-07-31T01:04:31.311Z,99.90
2022-07-31T01:07:01.316Z,99.90
2022-07-31T01:09:29.193Z,99.90
2022-07-31T01:11:59.527Z,99.90
2022-07-31T01:14:29.807Z,99.90
2022-07-31T01:16:57.867Z,99.90
2022-07-31T01:19:46.131Z,99.90
2022-07-31T01:22:47.330Z,99.90
2022-07-31T01:25:30.149Z,99.90
2022-07-31T01:28:47.086Z,99.90
2022-07-31T01:31:26.633Z,99.90
2022-07-31T01:34:05.845Z,99.90
2022-07-31T01:36:35.003Z,99.90
2022-07-31T01:39:03.555Z,99.90
2022-07-31T01:41:34.360Z,99.90
2022-07-31T01:44:01.668Z,99.90
2022-07-31T01:46:29.020Z,99.90
2022-07-31T01:48:56.671Z,99.90
2022-07-31T01:51:25.547Z,99.90
2022-07-31T01:53:52.826Z,99.90
2022-07-31T01:56:20.134Z,99.90
2022-07-31T01:58:47.492Z,99.90
2022-07-31T02:01:27.555Z,99.90
2022-07-31T02:03:56.806Z,99.90
2022-07-31T02:06:24.071Z,99.90
2022-07-31T02:08:52.794Z,99.90
2022-07-31T02:11:20.770Z,99.90
2022-07-31T02:13:48.923Z,99.90
2022-07-31T02:16:17.277Z,99.90
2022-07-31T02:18:46.453Z,99.90
2022-07-31T02:21:20.669Z,99.90
2022-07-31T02:23:47.891Z,99.90
2022-07-31T02:26:15.716Z,99.90
2022-07-31T02:28:43.766Z,99.90
2022-07-31T02:31:12.667Z,99.90
2022-07-31T02:33:40.708Z,99.90
2022-07-31T02:36:08.144Z,99.90
2022-07-31T02:38:35.407Z,99.90
2022-07-31T02:41:04.797Z,99.90
2022-07-31T02:43:33.225Z,99.90
2022-07-31T02:46:06.074Z,99.90
2022-07-31T02:48:33.396Z,99.90
2022-07-31T02:51:04.783Z,99.90
2022-07-31T02:53:32.826Z,99.90
2022-07-31T02:56:04.310Z,99.90
2022-07-31T02:58:33.782Z,99.90
2022-07-31T03:01:02.200Z,99.90
2022-07-31T03:03:31.412Z,99.90
2022-07-31T03:05:58.656Z,99.90
2022-07-31T03:08:26.675Z,99.90
2022-07-31T03:10:56.053Z,99.90
2022-07-31T03:13:27.545Z,99.90
2022-07-31T03:15:55.116Z,99.90
2022-07-31T03:18:22.594Z,99.90
2022-07-31T03:20:53.025Z,99.90
2022-07-31T03:23:21.547Z,99.90
2022-07-31T03:25:54.079Z,99.90
2022-07-31T03:28:22.910Z,99.90
2022-07-31T03:30:56.109Z,99.90
2022-07-31T03:33:26.241Z,99.90
2022-07-31T03:35:53.628Z,99.90
2022-07-31T03:38:39.641Z,99.90
2022-07-31T03:41:09.371Z,99.90
2022-07-31T03:43:47.399Z,99.90
2022-07-31T03:46:18.781Z,99.90
2022-07-31T03:48:47.278Z,99.90
2022-07-31T03:51:14.835Z,99.90
2022-07-31T03:53:42.699Z,99.90
2022-07-31T03:56:15.564Z,99.90
2022-07-31T03:58:42.816Z,99.90
2022-07-31T04:01:16.408Z,99.90
2022-07-31T04:03:48.311Z,99.90
2022-07-31T04:06:28.131Z,99.90
2022-07-31T04:08:56.192Z,99.90
2022-07-31T04:11:23.488Z,99.90
2022-07-31T04:13:50.893Z,99.90
2022-07-31T04:16:18.155Z,99.90
2022-07-31T04:18:47.862Z,99.90
2022-07-31T04:21:18.393Z,99.90
2022-07-31T04:23:49.673Z,99.90
2022-07-31T04:26:40.558Z,99.90
2022-07-31T04:29:08.573Z,99.90
2022-07-31T04:31:36.887Z,99.90
2022-07-31T04:34:06.804Z,99.90
2022-07-31T04:36:34.108Z,99.90
2022-07-31T04:39:02.128Z,99.90
2022-07-31T04:41:30.136Z,99.90
2022-07-31T04:43:57.948Z,99.90
2022-07-31T04:46:26.487Z,99.90
2022-07-31T04:48:55.109Z,99.90
2022-07-31T04:51:23.203Z,99.90
2022-07-31T04:53:50.633Z,99.90
2022-07-31T04:56:42.207Z,99.90
2022-07-31T04:59:11.801Z,99.90
2022-07-31T05:01:41.939Z,99.90
2022-07-31T05:04:10.881Z,99.90
2022-07-31T05:06:45.792Z,99.90
2022-07-31T05:09:18.746Z,99.90
2022-07-31T05:11:47.509Z,99.90
2022-07-31T05:14:16.585Z,99.90
2022-07-31T05:16:44.338Z,99.90
2022-07-31T05:19:13.740Z,99.90
2022-07-31T05:21:52.993Z,99.90
2022-07-31T05:24:33.215Z,99.90
2022-07-31T05:27:09.496Z,99.90
2022-07-31T05:29:36.766Z,99.90
2022-07-31T05:32:04.994Z,99.90
2022-07-31T05:34:34.021Z,99.90
2022-07-31T05:37:01.892Z,99.90
2022-07-31T05:39:31.417Z,99.90
2022-07-31T05:42:17.183Z,99.90
2022-07-31T05:45:03.086Z,99.90
2022-07-31T05:47:40.122Z,99.90
2022-07-31T05:50:09.386Z,99.90
2022-07-31T05:52:36.688Z,99.90
2022-07-31T05:55:24.946Z,99.90
2022-07-31T05:57:55.024Z,99.90
2022-07-31T06:00:22.434Z,99.90
2022-07-31T06:02:49.804Z,99.90
2022-07-31T06:05:40.660Z,99.90
2022-07-31T06:08:09.575Z,99.90
2022-07-31T06:10:41.284Z,99.90
2022-07-31T06:13:08.543Z,99.90
2022-07-31T06:15:36.689Z,99.90
2022-07-31T06:18:04.603Z,99.90
2022-07-31T06:20:32.174Z,99.90
2022-07-31T06:22:59.871Z,99.90
2022-07-31T06:25:38.818Z,99.90
2022-07-31T06:28:07.135Z,99.90
2022-07-31T06:30:38.038Z,99.90
2022-07-31T06:33:08.453Z,99.90
2022-07-31T06:35:37.211Z,99.90
2022-07-31T06:38:24.463Z,99.90
2022-07-31T06:41:45.143Z,99.90
2022-07-31T06:44:31.227Z,99.90
2022-07-31T06:47:17.844Z,99.90
2022-07-31T06:49:57.152Z,99.90
2022-07-31T06:52:28.728Z,99.90
2022-07-31T06:54:56.387Z,99.90
2022-07-31T06:57:23.720Z,99.90
2022-07-31T06:59:50.960Z,99.90
2022-07-31T07:02:18.753Z,99.90
2022-07-31T07:05:01.503Z,99.90
2022-07-31T07:07:35.453Z,99.90
2022-07-31T07:10:04.553Z,99.90
2022-07-31T07:12:50.395Z,99.90
2022-07-31T07:15:18.765Z,99.90
2022-07-31T07:17:46.269Z,99.90
2022-07-31T07:20:18.033Z,99.90
2022-07-31T07:22:45.318Z,99.90
2022-07-31T07:25:17.229Z,99.90
2022-07-31T07:27:44.508Z,99.90
2022-07-31T07:30:11.896Z,99.90
2022-07-31T07:32:39.348Z,99.90
2022-07-31T07:35:09.155Z,99.90
2022-07-31T07:37:49.389Z,99.90
2022-07-31T07:40:19.651Z,99.90
2022-07-31T07:42:46.932Z,99.90
2022-07-31T07:45:15.072Z,99.90
2022-07-31T07:48:05.598Z,99.90
2022-07-31T07:50:35.012Z,99.90
2022-07-31T07:53:25.734Z,99.90
2022-07-31T07:56:22.180Z,99.90
2022-07-31T07:59:18.787Z,99.90
2022-07-31T08:02:04.426Z,99.90
2022-07-31T08:04:33.442Z,99.90
2022-07-31T08:07:00.695Z,99.90
2022-07-31T08:09:34.223Z,99.90
2022-07-31T08:12:20.055Z,99.90
2022-07-31T08:15:10.229Z,99.90
2022-07-31T08:18:06.060Z,99.90
2022-07-31T08:20:33.314Z,99.90
2022-07-31T08:23:00.576Z,99.90
2022-07-31T08:25:32.042Z,99.90
2022-07-31T08:27:59.871Z,99.90
2022-07-31T08:30:30.817Z,99.90
2022-07-31T08:32:58.923Z,99.90
2022-07-31T08:35:39.659Z,99.90
2022-07-31T08:38:12.657Z,99.90
2022-07-31T08:40:47.386Z,99.90
2022-07-31T08:44:00.314Z,99.90
2022-07-31T08:46:02.961Z,99.90
2022-07-31T08:48:34.711Z,99.90
2022-07-31T08:51:03.537Z,99.90
2022-07-31T08:53:56.502Z,99.90
2022-07-31T08:56:24.354Z,99.90
2022-07-31T08:58:51.773Z,99.90
2022-07-31T09:01:21.386Z,99.90
2022-07-31T09:03:49.214Z,99.90
2022-07-31T09:06:16.672Z,99.90
2022-07-31T09:08:43.952Z,99.90
2022-07-31T09:11:12.717Z,99.90
2022-07-31T09:14:02.790Z,99.90
2022-07-31T09:16:47.625Z,99.90
2022-07-31T09:19:52.651Z,99.90
2022-07-31T09:22:24.299Z,99.90
2022-07-31T09:24:52.078Z,99.90
2022-07-31T09:27:20.086Z,99.90
2022-07-31T09:29:49.524Z,99.90
2022-07-31T09:32:32.243Z,99.90
2022-07-31T09:35:19.700Z,99.90
2022-07-31T09:37:47.159Z,97.50
2022-07-31T09:40:35.297Z,97.20
2022-07-31T09:43:17.232Z,98.50
2022-07-31T09:45:48.173Z,97.80
2022-07-31T09:48:26.898Z,97.20
2022-07-31T09:51:04.278Z,96.30
2022-07-31T09:53:53.284Z,96.30
2022-07-31T09:56:50.350Z,95.10
2022-07-31T09:59:17.852Z,94.10
2022-07-31T10:01:48.582Z,95.40
2022-07-31T10:04:19.970Z,95.30
2022-07-31T10:06:47.825Z,95.50
2022-07-31T10:09:15.258Z,95.20
2022-07-31T10:11:55.755Z,94.60
2022-07-31T10:14:27.085Z,95.40
2022-07-31T10:16:56.069Z,95.00
2022-07-31T10:19:42.559Z,94.80
2022-07-31T10:22:43.771Z,92.70
2022-07-31T10:25:17.717Z,95.20
2022-07-31T10:27:45.020Z,93.60
2022-07-31T10:30:13.955Z,94.20
2022-07-31T10:32:45.536Z,95.30
2022-07-31T10:35:43.524Z,94.00
2022-07-31T10:39:02.421Z,95.30
2022-07-31T10:42:33.586Z,94.90
2022-07-31T10:45:06.753Z,95.00
2022-07-31T10:47:52.995Z,92.80
2022-07-31T10:50:31.407Z,93.90
2022-07-31T10:53:17.711Z,94.70
2022-07-31T10:56:10.863Z,93.30
2022-07-31T10:58:55.850Z,94.10
2022-07-31T11:01:54.280Z,93.70
2022-07-31T11:04:45.423Z,92.60
2022-07-31T11:07:16.169Z,91.80
2022-07-31T11:10:11.778Z,93.60
2022-07-31T11:13:05.073Z,95.10
2022-07-31T11:15:47.053Z,93.30
2022-07-31T11:18:50.517Z,92.70
2022-07-31T11:21:37.479Z,94.00
2022-07-31T11:24:34.431Z,92.80
2022-07-31T11:27:01.869Z,91.90
2022-07-31T11:30:01.488Z,92.10
2022-07-31T11:32:22.925Z,93.30
2022-07-31T11:34:56.982Z,91.80
2022-07-31T11:37:24.901Z,92.80
2022-07-31T11:39:52.987Z,91.60
2022-07-31T11:42:26.347Z,90.70
2022-07-31T11:45:11.020Z,91.20
2022-07-31T11:48:11.096Z,91.10
2022-07-31T11:50:40.418Z,90.80
2022-07-31T11:53:07.673Z,91.70
2022-07-31T11:55:54.409Z,91.80
2022-07-31T11:58:22.545Z,92.10
2022-07-31T12:00:52.997Z,91.90
2022-07-31T12:03:22.954Z,92.00
2022-07-31T12:05:52.453Z,93.20
2022-07-31T12:08:20.339Z,92.50
2022-07-31T12:10:47.922Z,93.20
2022-07-31T12:13:16.940Z,92.10
2022-07-31T12:15:54.204Z,92.40
2022-07-31T12:18:21.465Z,91.90
2022-07-31T12:20:59.054Z,92.80
2022-07-31T12:23:40.386Z,92.20
2022-07-31T12:26:10.681Z,92.20
2022-07-31T12:28:37.974Z,91.90
2022-07-31T12:31:05.415Z,92.60
2022-07-31T12:33:42.839Z,91.90
2022-07-31T12:36:14.442Z,91.30
2022-07-31T12:38:44.980Z,91.40
2022-07-31T12:41:13.630Z,90.60
2022-07-31T12:43:51.988Z,90.60
2022-07-31T12:46:34.617Z,91.10
2022-07-31T12:49:02.146Z,91.40
2022-07-31T12:51:45.330Z,91.80
2022-07-31T12:54:17.399Z,90.60
2022-07-31T12:56:45.162Z,91.20
2022-07-31T12:59:12.549Z,91.10
2022-07-31T13:01:39.986Z,91.00
2022-07-31T13:04:18.389Z,91.70
2022-07-31T13:06:48.819Z,91.60
2022-07-31T13:09:16.396Z,91.60
2022-07-31T13:11:46.258Z,91.00
2022-07-31T13:14:18.871Z,91.40
2022-07-31T13:16:46.293Z,90.80
2022-07-31T13:19:13.995Z,90.50
2022-07-31T13:21:49.635Z,88.60
2022-07-31T13:24:20.740Z,89.50
2022-07-31T13:26:48.855Z,88.00
2022-07-31T13:29:16.487Z,90.20
2022-07-31T13:31:44.076Z,87.60
2022-07-31T13:34:11.301Z,86.70
2022-07-31T13:36:39.385Z,90.00
2022-07-31T13:39:10.677Z,86.60
2022-07-31T13:41:39.151Z,87.00
2022-07-31T13:44:07.051Z,86.60
2022-07-31T13:46:34.394Z,88.00
2022-07-31T13:49:01.859Z,88.40
2022-07-31T13:51:30.163Z,86.40
2022-07-31T13:53:57.485Z,89.60
2022-07-31T13:56:39.491Z,88.40
2022-07-31T13:59:11.927Z,87.80
2022-07-31T14:02:04.616Z,88.20
2022-07-31T14:04:31.282Z,88.20
2022-07-31T14:07:01.046Z,88.70
2022-07-31T14:09:28.526Z,86.30
2022-07-31T14:11:56.872Z,86.40
2022-07-31T14:14:24.232Z,89.50
2022-07-31T14:16:51.481Z,87.90
2022-07-31T14:19:18.803Z,87.10
2022-07-31T14:21:56.402Z,88.00
2022-07-31T14:24:26.511Z,87.80
2022-07-31T14:26:53.731Z,87.60
2022-07-31T14:29:21.042Z,88.00
2022-07-31T14:31:48.321Z,88.90
2022-07-31T14:34:15.557Z,87.00
2022-07-31T14:36:42.784Z,87.80
2022-07-31T14:39:10.088Z,88.30
2022-07-31T14:41:37.333Z,87.50
2022-07-31T14:44:04.728Z,86.80
2022-07-31T14:46:31.992Z,84.80
2022-07-31T14:49:01.480Z,85.50
2022-07-31T14:51:29.162Z,86.40
2022-07-31T14:53:56.477Z,85.60
2022-07-31T14:56:51.457Z,85.80
2022-07-31T14:59:10.962Z,85.10
2022-07-31T15:01:38.280Z,85.70
2022-07-31T15:04:06.508Z,85.70
2022-07-31T15:06:51.334Z,86.10
2022-07-31T15:09:21.188Z,86.80
2022-07-31T15:12:00.707Z,86.90
2022-07-31T15:14:29.889Z,88.60
2022-07-31T15:16:57.439Z,89.40
2022-07-31T15:19:24.692Z,87.50
2022-07-31T15:22:11.185Z,90.00
2022-07-31T15:24:42.473Z,87.30
2022-07-31T15:27:12.962Z,89.60
2022-07-31T15:30:04.709Z,89.20
2022-07-31T15:32:27.490Z,86.80
2022-07-31T15:34:54.788Z,87.60
2022-07-31T15:37:22.025Z,86.20
2022-07-31T15:40:02.823Z,87.50
2022-07-31T15:42:40.244Z,88.30
2022-07-31T15:45:09.449Z,89.80
2022-07-31T15:47:36.752Z,88.30
2022-07-31T15:50:04.456Z,89.20
2022-07-31T15:52:31.718Z,88.10
2022-07-31T15:54:58.947Z,89.50
2022-07-31T15:57:26.199Z,88.50
2022-07-31T15:59:56.323Z,88.20
2022-07-31T16:02:23.896Z,87.70
2022-07-31T16:04:54.312Z,88.30
2022-07-31T16:08:31.203Z,87.20
2022-07-31T16:10:16.569Z,87.80
2022-07-31T16:12:45.930Z,88.20
2022-07-31T16:15:13.574Z,88.70
2022-07-31T16:17:41.096Z,87.40
2022-07-31T16:20:10.287Z,88.30
2022-07-31T16:22:38.078Z,89.20
2022-07-31T16:25:05.996Z,88.40
2022-07-31T16:27:33.253Z,89.70
2022-07-31T16:30:01.951Z,87.90
2022-07-31T16:32:29.960Z,87.90
2022-07-31T16:35:00.951Z,88.40
2022-07-31T16:37:50.252Z,87.10
2022-07-31T16:40:28.854Z,88.60
2022-07-31T16:43:47.992Z,87.40
2022-07-31T16:45:52.993Z,87.80
2022-07-31T16:48:20.297Z,87.80
2022-07-31T16:50:53.080Z,86.70
2022-07-31T16:54:13.590Z,86.40
2022-07-31T16:56:11.192Z,86.10
2022-07-31T16:58:38.406Z,86.70
2022-07-31T17:01:06.367Z,87.90
2022-07-31T17:04:00.477Z,87.10
2022-07-31T17:06:36.218Z,86.70
2022-07-31T17:09:17.018Z,88.10
2022-07-31T17:11:50.119Z,87.20
2022-07-31T17:14:18.280Z,88.90
2022-07-31T17:16:47.884Z,89.40
2022-07-31T17:19:36.026Z,89.60
2022-07-31T17:22:04.782Z,90.00
2022-07-31T17:24:32.136Z,89.30
2022-07-31T17:26:59.719Z,89.70
2022-07-31T17:29:26.980Z,90.00
2022-07-31T17:31:54.198Z,90.90
2022-07-31T17:34:21.469Z,90.70
2022-07-31T17:36:50.118Z,90.60
2022-07-31T17:39:17.447Z,90.80
2022-07-31T17:41:44.741Z,91.40
2022-07-31T17:44:12.052Z,91.00
2022-07-31T17:46:48.371Z,90.80
2022-07-31T17:49:20.262Z,91.10
2022-07-31T17:51:57.724Z,91.20
2022-07-31T17:54:27.644Z,91.20
2022-07-31T17:56:55.113Z,91.40
2022-07-31T17:59:23.088Z,91.80
2022-07-31T18:01:52.275Z,92.10
2022-07-31T18:04:21.052Z,92.00
2022-07-31T18:06:54.397Z,92.30
2022-07-31T18:09:23.463Z,92.60
2022-07-31T18:11:51.672Z,92.60
2022-07-31T18:14:18.972Z,93.30
2022-07-31T18:16:46.459Z,93.40
2022-07-31T18:19:13.951Z,93.30
2022-07-31T18:21:41.239Z,93.30
2022-07-31T18:24:08.541Z,93.40
2022-07-31T18:26:36.055Z,93.60
2022-07-31T18:29:03.482Z,93.90
2022-07-31T18:31:34.208Z,94.10
2022-07-31T18:34:05.508Z,93.90
2022-07-31T18:36:33.346Z,94.80
2022-07-31T18:39:00.823Z,94.80
2022-07-31T18:41:28.142Z,94.80
2022-07-31T18:43:55.469Z,95.10
2022-07-31T18:46:24.587Z,96.30
2022-07-31T18:48:56.255Z,95.10
2022-07-31T18:51:24.968Z,96.60
2022-07-31T18:53:54.688Z,97.00
2022-07-31T18:56:23.418Z,97.20
2022-07-31T18:58:51.376Z,98.00
2022-07-31T19:01:18.660Z,97.40
2022-07-31T19:03:46.606Z,97.60
2022-07-31T19:06:13.915Z,97.80
2022-07-31T19:08:41.191Z,98.30
2022-07-31T19:11:08.467Z,98.70
2022-07-31T19:13:35.715Z,98.60
2022-07-31T19:16:04.287Z,98.70
2022-07-31T19:18:33.185Z,99.10
2022-07-31T19:21:17.723Z,99.20
2022-07-31T19:23:48.643Z,99.20
2022-07-31T19:26:15.863Z,99.60
2022-07-31T19:28:43.353Z,99.70
2022-07-31T19:31:11.504Z,99.90
2022-07-31T19:33:39.162Z,99.90
2022-07-31T19:36:06.856Z,99.90
2022-07-31T19:38:35.763Z,99.90
2022-07-31T19:41:03.214Z,99.90
2022-07-31T19:43:30.591Z,99.90
2022-07-31T19:46:11.285Z,99.30
2022-07-31T19:48:43.832Z,98.80
2022-07-31T19:51:12.166Z,99.30
2022-07-31T19:53:39.577Z,99.10
2022-07-31T19:56:07.066Z,99.90
2022-07-31T19:58:35.269Z,99.10
2022-07-31T20:01:05.874Z,99.90
2022-07-31T20:03:33.434Z,99.70
2022-07-31T20:06:04.070Z,99.20
2022-07-31T20:08:33.631Z,99.90
2022-07-31T20:11:03.325Z,99.90
2022-07-31T20:13:32.268Z,99.90
2022-07-31T20:15:59.536Z,99.90
2022-07-31T20:18:28.553Z,99.90
2022-07-31T20:20:57.322Z,99.90
2022-07-31T20:23:25.583Z,99.90
2022-07-31T20:25:52.968Z,99.90
2022-07-31T20:28:20.354Z,99.90
2022-07-31T20:30:47.586Z,99.90
2022-07-31T20:33:14.928Z,99.90
2022-07-31T20:35:49.121Z,99.90
2022-07-31T20:38:20.746Z,99.90
2022-07-31T20:40:54.207Z,99.90
2022-07-31T20:43:23.804Z,99.90
2022-07-31T20:45:51.375Z,99.90
2022-07-31T20:48:18.755Z,99.90
2022-07-31T20:50:47.758Z,99.90
2022-07-31T20:53:19.388Z,99.90
2022-07-31T20:55:49.210Z,99.90
2022-07-31T20:58:18.100Z,99.90
2022-07-31T21:00:47.130Z,99.90
2022-07-31T21:03:14.837Z,99.90
2022-07-31T21:05:42.264Z,99.90
2022-07-31T21:08:10.593Z,99.90
2022-07-31T21:10:37.986Z,99.90
2022-07-31T21:13:05.293Z,99.90
2022-07-31T21:15:42.143Z,99.90
2022-07-31T21:18:15.774Z,99.90
2022-07-31T21:20:52.442Z,99.90
2022-07-31T21:23:21.916Z,99.90
2022-07-31T21:25:49.407Z,99.90
2022-07-31T21:28:16.960Z,99.90
2022-07-31T21:30:44.436Z,99.90
2022-07-31T21:33:11.777Z,99.90
2022-07-31T21:35:40.065Z,99.90
2022-07-31T21:38:10.245Z,99.90
2022-07-31T21:40:39.167Z,99.90
2022-07-31T21:43:06.766Z,99.90
2022-07-31T21:45:51.096Z,99.90
2022-07-31T21:48:21.600Z,99.90
2022-07-31T21:50:48.946Z,99.90
2022-07-31T21:53:16.267Z,99.90
2022-07-31T21:55:43.881Z,99.90
2022-07-31T21:58:11.225Z,99.90
2022-07-31T22:00:38.508Z,99.90
2022-07-31T22:03:05.841Z,99.90
2022-07-31T22:05:52.092Z,99.90
2022-07-31T22:08:19.614Z,99.90
2022-07-31T22:10:47.119Z,99.90
2022-07-31T22:13:14.380Z,99.90
2022-07-31T22:15:58.573Z,99.90
2022-07-31T22:18:29.559Z,99.90
2022-07-31T22:20:57.703Z,99.90
2022-07-31T22:23:26.245Z,99.90
2022-07-31T22:25:53.676Z,99.90
2022-07-31T22:28:21.527Z,99.90
2022-07-31T22:30:49.259Z,99.90
2022-07-31T22:33:16.603Z,99.90
2022-07-31T22:35:43.926Z,99.90
2022-07-31T22:38:11.597Z,99.90
2022-07-31T22:40:39.028Z,99.90
2022-07-31T22:44:05.525Z,99.90
2022-07-31T22:45:54.392Z,99.90
2022-07-31T22:48:22.579Z,99.90
2022-07-31T22:50:49.861Z,99.90
2022-07-31T22:53:17.542Z,99.90
2022-07-31T22:55:44.742Z,99.90
2022-07-31T22:58:14.974Z,99.90
2022-07-31T23:00:42.440Z,99.90
2022-07-31T23:03:09.685Z,99.90
2022-07-31T23:06:28.213Z,99.90
2022-07-31T23:08:24.168Z,99.90
2022-07-31T23:10:51.390Z,99.90
2022-07-31T23:13:18.638Z,99.90
2022-07-31T23:15:46.327Z,99.90
2022-07-31T23:18:13.552Z,99.90
2022-07-31T23:20:40.831Z,99.90
2022-07-31T23:23:08.052Z,99.90
2022-07-31T23:25:35.380Z,99.90
2022-07-31T23:28:02.615Z,99.90
2022-07-31T23:30:29.865Z,99.90
2022-07-31T23:32:57.116Z,99.90
2022-07-31T23:35:24.456Z,99.90
2022-07-31T23:37:51.747Z,99.90
2022-07-31T23:40:18.994Z,99.90
2022-07-31T23:42:46.221Z,99.90
2022-07-31T23:45:16.103Z,99.90
2022-07-31T23:47:45.970Z,99.90
2022-07-31T23:50:14.882Z,99.90
2022-07-31T23:52:42.827Z,99.90
2022-07-31T23:55:10.062Z,99.90
2022-07-31T23:57:37.295Z,99.90
